createdAt,value
2019-01-26T00:00:52.376Z,167.90
2019-01-26T00:03:23.134Z,172.83
2019-01-26T00:05:54.083Z,162.30
2019-01-26T00:08:26.254Z,174.10
2019-01-26T00:10:57.834Z,153.60
2019-01-26T00:13:29.898Z,157.80
2019-01-26T00:16:00.813Z,164.90
2019-01-26T00:18:31.423Z,174.13
2019-01-26T00:21:02.032Z,154.47
2019-01-26T00:23:32.718Z,164.93
2019-01-26T00:26:03.257Z,147.90
2019-01-26T00:28:33.934Z,137.30
2019-01-26T00:31:05.513Z,151.17
2019-01-26T00:33:37.020Z,145.93
2019-01-26T00:36:08.210Z,150.47
2019-01-26T00:38:39.297Z,147.60
2019-01-26T00:41:10.078Z,145.47
2019-01-26T00:43:41.229Z,141.03
2019-01-26T00:46:12.018Z,130.07
2019-01-26T00:48:43.169Z,128.53
2019-01-26T00:51:17.245Z,123.77
2019-01-26T00:53:46.618Z,108.07
2019-01-26T00:56:18.331Z,100.43
2019-01-26T00:58:49.839Z,111.57
2019-01-26T01:01:21.838Z,97.30
2019-01-26T01:03:52.980Z,96.60
2019-01-26T01:06:26.016Z,93.20
2019-01-26T01:08:56.069Z,100.23
2019-01-26T01:11:26.603Z,99.23
2019-01-26T01:13:58.297Z,95.67
2019-01-26T01:16:35.834Z,98.90
2019-01-26T01:19:02.969Z,97.53
2019-01-26T01:21:33.667Z,106.80
2019-01-26T01:24:04.467Z,95.13
2019-01-26T01:26:35.179Z,93.97
2019-01-26T01:29:05.919Z,99.90
2019-01-26T01:31:36.673Z,95.17
2019-01-26T01:34:07.318Z,87.57
2019-01-26T01:36:37.948Z,111.30
2019-01-26T01:39:11.297Z,95.53
2019-01-26T01:41:42.919Z,104.77
2019-01-26T01:44:14.743Z,101.20
2019-01-26T01:46:45.398Z,106.57
2019-01-26T01:49:16.040Z,102.07
2019-01-26T01:51:46.723Z,109.73
2019-01-26T01:54:17.285Z,112.67
2019-01-26T01:56:47.827Z,111.40
2019-01-26T01:59:18.414Z,97.03
2019-01-26T02:01:48.939Z,105.73
2019-01-26T02:04:19.508Z,111.33
2019-01-26T02:06:50.129Z,101.77
2019-01-26T02:09:20.812Z,103.70
2019-01-26T02:11:51.539Z,108.17
2019-01-26T02:14:22.138Z,100.73
2019-01-26T02:16:52.753Z,97.30
2019-01-26T02:19:23.377Z,98.33
2019-01-26T02:21:54.005Z,104.63
2019-01-26T02:24:24.650Z,94.43
2019-01-26T02:26:55.330Z,102.60
2019-01-26T02:29:25.878Z,97.40
2019-01-26T02:31:56.534Z,101.57
2019-01-26T02:34:26.979Z,86.23
2019-01-26T02:36:57.729Z,84.63
2019-01-26T02:39:28.227Z,86.00
2019-01-26T02:41:58.803Z,74.20
2019-01-26T02:44:29.361Z,82.43
2019-01-26T02:46:59.980Z,85.27
2019-01-26T02:49:30.527Z,83.07
2019-01-26T02:52:01.294Z,87.90
2019-01-26T02:54:31.883Z,88.77
2019-01-26T02:57:02.478Z,88.03
2019-01-26T02:59:33.174Z,83.70
2019-01-26T03:02:03.901Z,80.47
2019-01-26T03:04:34.717Z,96.87
2019-01-26T03:07:05.687Z,93.90
2019-01-26T03:09:36.387Z,91.93
2019-01-26T03:12:08.459Z,95.47
2019-01-26T03:14:39.003Z,94.20
2019-01-26T03:17:09.649Z,101.13
2019-01-26T03:19:40.539Z,84.47
2019-01-26T03:22:11.944Z,91.57
2019-01-26T03:24:42.609Z,93.93
2019-01-26T03:27:13.340Z,78.90
2019-01-26T03:29:43.986Z,85.93
2019-01-26T03:32:14.738Z,84.53
2019-01-26T03:34:45.362Z,81.43
2019-01-26T03:37:16.074Z,95.43
2019-01-26T03:39:46.684Z,89.57
2019-01-26T03:42:17.313Z,87.03
2019-01-26T03:44:47.966Z,92.23
2019-01-26T03:47:18.510Z,87.00
2019-01-26T03:49:49.224Z,75.10
2019-01-26T03:52:19.930Z,80.20
2019-01-26T03:54:50.668Z,72.80
2019-01-26T03:57:21.340Z,78.33
2019-01-26T03:59:52.098Z,81.00
2019-01-26T04:02:23.949Z,76.03
2019-01-26T04:04:54.680Z,71.93
2019-01-26T04:07:25.419Z,73.17
2019-01-26T04:09:56.098Z,81.40
2019-01-26T04:12:26.904Z,68.93
2019-01-26T04:14:57.574Z,70.77
2019-01-26T04:17:28.424Z,73.77
2019-01-26T04:19:59.080Z,78.47
2019-01-26T04:22:29.784Z,68.80
2019-01-26T04:25:00.440Z,81.07
2019-01-26T04:27:31.129Z,69.87
2019-01-26T04:30:01.870Z,69.20
2019-01-26T04:32:32.514Z,75.27
2019-01-26T04:35:03.359Z,84.57
2019-01-26T04:37:34.052Z,79.23
2019-01-26T04:40:05.831Z,96.57
2019-01-26T04:42:36.517Z,93.17
2019-01-26T04:45:10.319Z,95.77
2019-01-26T04:47:41.045Z,92.77
2019-01-26T04:50:14.250Z,88.67
2019-01-26T04:52:45.043Z,62.07
2019-01-26T04:55:18.697Z,70.77
2019-01-26T04:57:49.769Z,72.57
2019-01-26T05:00:24.144Z,67.53
2019-01-26T05:02:54.864Z,64.30
2019-01-26T05:05:25.709Z,63.53
2019-01-26T05:07:56.394Z,68.93
2019-01-26T05:10:27.020Z,70.83
2019-01-26T05:12:57.768Z,67.03
2019-01-26T05:15:28.419Z,64.00
2019-01-26T05:17:59.113Z,63.03
2019-01-26T05:20:29.909Z,64.60
2019-01-26T05:23:00.605Z,74.60
2019-01-26T05:25:31.221Z,79.43
2019-01-26T05:28:01.830Z,65.47
2019-01-26T05:30:32.388Z,81.27
2019-01-26T05:33:03.078Z,85.20
2019-01-26T05:35:33.626Z,85.67
2019-01-26T05:38:04.361Z,87.60
2019-01-26T05:40:35.049Z,93.93
2019-01-26T05:43:06.249Z,68.33
2019-01-26T05:45:36.932Z,83.47
2019-01-26T05:48:07.994Z,83.63
2019-01-26T05:50:38.719Z,79.87
2019-01-26T05:53:09.324Z,83.33
2019-01-26T05:55:39.921Z,82.37
2019-01-26T05:58:10.695Z,81.43
2019-01-26T06:00:41.731Z,80.43
2019-01-26T06:03:12.466Z,86.57
2019-01-26T06:05:43.060Z,75.57
2019-01-26T06:08:15.470Z,78.13
2019-01-26T06:10:46.070Z,84.33
2019-01-26T06:13:16.691Z,83.93
2019-01-26T06:15:47.421Z,77.37
2019-01-26T06:18:18.214Z,70.67
2019-01-26T06:20:48.880Z,78.00
2019-01-26T06:23:19.493Z,76.53
2019-01-26T06:25:50.120Z,78.03
2019-01-26T06:28:20.854Z,77.73
2019-01-26T06:30:51.559Z,70.93
2019-01-26T06:33:22.345Z,72.03
2019-01-26T06:35:56.971Z,71.97
2019-01-26T06:38:28.129Z,67.00
2019-01-26T06:40:59.057Z,71.17
2019-01-26T06:43:29.769Z,69.70
2019-01-26T06:46:00.321Z,68.20
2019-01-26T06:48:30.895Z,66.83
2019-01-26T06:51:01.693Z,65.20
2019-01-26T06:53:32.363Z,65.63
2019-01-26T06:56:03.120Z,72.70
2019-01-26T06:58:33.895Z,72.73
2019-01-26T07:01:04.635Z,72.27
2019-01-26T07:03:35.937Z,66.77
2019-01-26T07:06:17.220Z,72.67
2019-01-26T07:08:47.922Z,69.43
2019-01-26T07:11:40.005Z,65.77
2019-01-26T07:14:11.024Z,79.07
2019-01-26T07:16:41.799Z,82.70
2019-01-26T07:19:12.391Z,73.07
2019-01-26T07:21:43.129Z,78.93
2019-01-26T07:24:13.719Z,71.40
2019-01-26T07:26:44.479Z,86.50
2019-01-26T07:29:15.219Z,74.50
2019-01-26T07:31:45.921Z,82.17
2019-01-26T07:34:16.998Z,73.53
2019-01-26T07:36:47.693Z,82.40
2019-01-26T07:39:18.379Z,86.10
2019-01-26T07:41:49.096Z,77.83
2019-01-26T07:44:19.759Z,77.40
2019-01-26T07:46:50.697Z,90.50
2019-01-26T07:49:22.145Z,87.43
2019-01-26T07:51:52.959Z,83.57
2019-01-26T07:54:23.814Z,76.80
2019-01-26T07:56:54.695Z,87.77
2019-01-26T07:59:25.368Z,85.43
2019-01-26T08:01:56.049Z,78.53
2019-01-26T08:04:26.715Z,82.03
2019-01-26T08:06:57.288Z,81.77
2019-01-26T08:09:28.136Z,80.97
2019-01-26T08:11:58.759Z,82.77
2019-01-26T08:14:29.304Z,80.10
2019-01-26T08:16:59.969Z,83.80
2019-01-26T08:19:30.625Z,76.97
2019-01-26T08:22:01.289Z,77.93
2019-01-26T08:24:31.921Z,105.55
2019-01-26T08:27:02.655Z,87.33
2019-01-26T08:29:33.273Z,82.67
2019-01-26T08:32:03.945Z,86.00
2019-01-26T08:34:34.628Z,91.67
2019-01-26T08:37:05.794Z,78.27
2019-01-26T08:39:36.418Z,74.73
2019-01-26T08:42:07.368Z,83.47
2019-01-26T08:44:38.069Z,81.47
2019-01-26T08:47:08.674Z,97.03
2019-01-26T08:49:39.348Z,90.57
2019-01-26T08:52:10.100Z,79.17
2019-01-26T08:54:40.584Z,79.10
2019-01-26T08:57:11.373Z,80.70
2019-01-26T08:59:42.119Z,85.73
2019-01-26T09:02:30.267Z,91.33
2019-01-26T09:05:01.228Z,83.83
2019-01-26T09:07:31.905Z,82.40
2019-01-26T09:10:02.871Z,91.90
2019-01-26T09:12:33.508Z,83.17
2019-01-26T09:15:04.375Z,86.77
2019-01-26T09:17:35.148Z,87.10
2019-01-26T09:20:11.727Z,79.93
2019-01-26T09:22:42.481Z,81.70
2019-01-26T09:25:13.278Z,92.03
2019-01-26T09:27:44.349Z,80.17
2019-01-26T09:30:15.878Z,87.10
2019-01-26T09:32:46.568Z,87.53
2019-01-26T09:35:17.809Z,76.97
2019-01-26T09:37:51.769Z,85.07
2019-01-26T09:40:22.814Z,80.70
2019-01-26T09:42:53.704Z,78.50
2019-01-26T09:45:24.540Z,77.13
2019-01-26T09:47:55.899Z,88.27
2019-01-26T09:50:26.664Z,72.37
2019-01-26T09:52:57.620Z,77.10
2019-01-26T09:55:28.235Z,78.00
2019-01-26T09:57:58.892Z,78.87
2019-01-26T10:00:29.719Z,86.80
2019-01-26T10:03:00.428Z,78.97
2019-01-26T10:05:31.550Z,84.37
2019-01-26T10:08:02.214Z,69.00
2019-01-26T10:10:33.190Z,74.43
2019-01-26T10:13:03.984Z,75.70
2019-01-26T10:15:34.840Z,81.37
2019-01-26T10:18:06.240Z,75.60
2019-01-26T10:20:38.585Z,82.40
2019-01-26T10:23:10.633Z,80.10
2019-01-26T10:25:48.413Z,82.20
2019-01-26T10:28:13.795Z,71.60
2019-01-26T10:30:48.256Z,74.43
2019-01-26T10:33:19.001Z,78.77
2019-01-26T10:36:08.521Z,70.03
2019-01-26T10:38:44.204Z,79.57
2019-01-26T10:41:26.701Z,84.90
2019-01-26T10:43:57.493Z,86.50
2019-01-26T10:46:28.337Z,82.43
2019-01-26T10:49:00.781Z,88.43
2019-01-26T10:51:31.409Z,81.23
2019-01-26T10:54:02.295Z,76.00
2019-01-26T10:56:32.859Z,76.30
2019-01-26T10:59:03.710Z,86.17
2019-01-26T11:01:34.559Z,81.43
2019-01-26T11:04:05.324Z,77.90
2019-01-26T11:06:35.936Z,85.17
2019-01-26T11:09:11.608Z,92.27
2019-01-26T11:11:42.610Z,79.40
2019-01-26T11:14:13.387Z,83.77
2019-01-26T11:16:44.098Z,91.50
2019-01-26T11:19:14.822Z,93.63
2019-01-26T11:21:46.214Z,89.57
2019-01-26T11:24:16.894Z,92.80
2019-01-26T11:26:49.471Z,99.17
2019-01-26T11:29:20.070Z,100.73
2019-01-26T11:31:50.828Z,98.87
2019-01-26T11:34:21.594Z,96.83
2019-01-26T11:36:52.365Z,86.27
2019-01-26T11:39:23.146Z,97.00
2019-01-26T11:41:53.949Z,101.40
2019-01-26T11:44:25.358Z,98.33
2019-01-26T11:47:00.114Z,93.10
2019-01-26T11:49:30.885Z,102.00
2019-01-26T11:52:09.825Z,89.90
2019-01-26T11:55:01.338Z,88.33
2019-01-26T11:57:39.449Z,94.30
2019-01-26T12:00:38.505Z,86.50
2019-01-26T12:03:28.119Z,95.30
2019-01-26T12:06:03.810Z,116.13
2019-01-26T12:08:34.404Z,134.57
2019-01-26T12:11:05.145Z,108.30
2019-01-26T12:13:35.809Z,138.30
2019-01-26T12:16:06.602Z,112.63
2019-01-26T12:18:37.294Z,136.43
2019-01-26T12:21:07.964Z,143.87
2019-01-26T12:23:38.618Z,173.47
2019-01-26T12:26:09.388Z,144.00
2019-01-26T12:28:40.039Z,113.70
2019-01-26T12:31:10.594Z,110.53
2019-01-26T12:33:41.484Z,116.47
2019-01-26T12:36:12.469Z,114.37
2019-01-26T12:38:43.098Z,128.27
2019-01-26T12:41:13.889Z,118.00
2019-01-26T12:43:44.504Z,103.93
2019-01-26T12:46:15.060Z,124.27
2019-01-26T12:48:45.732Z,117.63
2019-01-26T12:51:16.257Z,113.07
2019-01-26T12:53:46.879Z,112.80
2019-01-26T12:56:17.599Z,114.60
2019-01-26T12:58:48.386Z,135.03
2019-01-26T13:01:19.004Z,114.93
2019-01-26T13:03:49.659Z,107.20
2019-01-26T13:06:20.450Z,113.73
2019-01-26T13:08:51.114Z,132.07
2019-01-26T13:11:27.028Z,99.00
2019-01-26T13:13:58.038Z,104.47
2019-01-26T13:16:28.785Z,93.20
2019-01-26T13:18:59.515Z,101.17
2019-01-26T13:21:30.230Z,88.90
2019-01-26T13:24:00.953Z,96.97
2019-01-26T13:26:31.939Z,108.20
2019-01-26T13:29:02.480Z,107.47
2019-01-26T13:31:34.190Z,98.97
2019-01-26T13:34:05.480Z,94.70
2019-01-26T13:36:36.188Z,96.07
2019-01-26T13:39:10.559Z,114.73
2019-01-26T13:41:41.286Z,115.73
2019-01-26T13:44:12.080Z,128.50
2019-01-26T13:46:42.839Z,126.70
2019-01-26T13:49:13.422Z,121.20
2019-01-26T13:51:44.106Z,138.53
2019-01-26T13:54:14.830Z,122.80
2019-01-26T13:56:45.535Z,115.97
2019-01-26T13:59:16.056Z,117.93
2019-01-26T14:01:46.725Z,122.77
2019-01-26T14:04:17.438Z,124.80
2019-01-26T14:06:48.259Z,142.60
2019-01-26T14:09:19.054Z,131.73
2019-01-26T14:11:49.930Z,139.70
2019-01-26T14:14:20.831Z,147.67
2019-01-26T14:16:51.590Z,145.33
2019-01-26T14:19:22.375Z,146.83
2019-01-26T14:21:52.815Z,153.80
2019-01-26T14:24:23.460Z,144.63
2019-01-26T14:26:54.158Z,148.30
2019-01-26T14:29:24.765Z,151.23
2019-01-26T14:31:55.317Z,149.57
2019-01-26T14:34:25.879Z,159.17
2019-01-26T14:36:56.500Z,142.23
2019-01-26T14:39:27.286Z,137.27
2019-01-26T14:41:57.957Z,131.00
2019-01-26T14:44:29.410Z,127.77
2019-01-26T14:47:00.100Z,126.97
2019-01-26T14:49:30.806Z,155.63
2019-01-26T14:52:01.498Z,155.40
2019-01-26T14:54:32.069Z,152.93
2019-01-26T14:57:03.105Z,161.90
2019-01-26T14:59:33.694Z,152.53
2019-01-26T15:02:04.529Z,166.57
2019-01-26T15:04:35.616Z,164.77
2019-01-26T15:07:07.029Z,152.73
2019-01-26T15:09:37.755Z,152.57
2019-01-26T15:12:08.504Z,145.90
2019-01-26T15:14:39.219Z,146.93
2019-01-26T15:17:09.925Z,144.83
2019-01-26T15:19:40.515Z,146.17
2019-01-26T15:22:11.270Z,151.33
2019-01-26T15:24:41.920Z,151.93
2019-01-26T15:27:12.540Z,149.13
2019-01-26T15:29:43.195Z,161.17
2019-01-26T15:32:16.208Z,163.37
2019-01-26T15:34:46.923Z,162.50
2019-01-26T15:37:17.619Z,163.10
2019-01-26T15:39:48.731Z,171.80
2019-01-26T15:42:19.453Z,160.77
2019-01-26T15:44:50.054Z,168.67
2019-01-26T15:47:20.539Z,163.33
2019-01-26T15:49:51.085Z,158.70
2019-01-26T15:52:23.290Z,162.67
2019-01-26T15:54:53.945Z,159.10
2019-01-26T15:57:24.586Z,173.80
2019-01-26T15:59:55.578Z,158.27
2019-01-26T16:02:26.513Z,164.97
2019-01-26T16:04:57.177Z,169.13
2019-01-26T16:07:27.975Z,166.33
2019-01-26T16:09:58.519Z,173.87
2019-01-26T16:12:29.135Z,169.97
2019-01-26T16:14:59.690Z,174.33
2019-01-26T16:17:30.359Z,154.10
2019-01-26T16:20:05.735Z,166.50
2019-01-26T16:22:36.239Z,147.67
2019-01-26T16:25:08.905Z,163.20
2019-01-26T16:27:39.625Z,161.77
2019-01-26T16:30:16.764Z,171.00
2019-01-26T16:32:47.617Z,191.63
2019-01-26T16:35:18.328Z,214.03
2019-01-26T16:37:49.589Z,219.17
2019-01-26T16:40:29.391Z,201.97
2019-01-26T16:43:00.032Z,246.17
2019-01-26T16:45:33.861Z,236.00
2019-01-26T16:48:05.820Z,246.77
2019-01-26T16:50:36.579Z,231.03
2019-01-26T16:53:07.248Z,225.33
2019-01-26T16:55:38.185Z,219.43
2019-01-26T16:58:08.989Z,195.43
2019-01-26T17:00:51.966Z,205.57
2019-01-26T17:03:24.228Z,221.60
2019-01-26T17:05:56.088Z,237.97
2019-01-26T17:08:26.869Z,269.50
2019-01-26T17:11:00.975Z,279.27
2019-01-26T17:13:31.820Z,247.23
2019-01-26T17:16:03.849Z,264.63
2019-01-26T17:18:36.738Z,245.70
2019-01-26T17:21:07.509Z,272.57
2019-01-26T17:23:38.398Z,284.07
2019-01-26T17:26:09.204Z,278.53
2019-01-26T17:28:40.854Z,297.77
2019-01-26T17:31:11.629Z,288.80
2019-01-26T17:33:42.349Z,311.03
2019-01-26T17:36:13.025Z,265.93
2019-01-26T17:38:45.064Z,259.87
2019-01-26T17:41:15.864Z,265.00
2019-01-26T17:43:50.149Z,285.93
2019-01-26T17:46:23.373Z,246.90
2019-01-26T17:48:54.394Z,222.43
2019-01-26T17:51:26.244Z,200.87
2019-01-26T17:53:57.814Z,190.57
2019-01-26T17:56:28.493Z,209.67
2019-01-26T17:58:59.319Z,185.37
2019-01-26T18:01:34.334Z,193.73
2019-01-26T18:04:10.124Z,186.07
2019-01-26T18:06:40.864Z,209.93
2019-01-26T18:09:11.818Z,224.40
2019-01-26T18:11:45.113Z,222.23
2019-01-26T18:14:16.365Z,262.50
2019-01-26T18:16:47.119Z,275.20
2019-01-26T18:19:20.275Z,262.80
2019-01-26T18:21:51.165Z,307.93
2019-01-26T18:24:46.302Z,328.63
2019-01-26T18:27:18.079Z,313.10
2019-01-26T18:29:51.365Z,308.17
2019-01-26T18:32:24.990Z,271.47
2019-01-26T18:34:59.895Z,270.10
2019-01-26T18:37:33.460Z,244.30
2019-01-26T18:40:06.930Z,245.70
2019-01-26T18:42:37.707Z,245.70
2019-01-26T18:45:11.808Z,242.97
2019-01-26T18:47:42.645Z,214.80
2019-01-26T18:50:24.603Z,253.73
2019-01-26T18:52:55.484Z,225.33
2019-01-26T18:55:29.246Z,245.50
2019-01-26T18:58:00.034Z,281.40
2019-01-26T19:00:39.988Z,285.63
2019-01-26T19:04:00.275Z,279.13
2019-01-26T19:06:31.507Z,268.30
2019-01-26T19:09:02.104Z,315.60
2019-01-26T19:11:36.863Z,319.93
2019-01-26T19:14:12.188Z,315.97
2019-01-26T19:16:45.309Z,272.77
2019-01-26T19:19:20.984Z,259.70
2019-01-26T19:21:54.604Z,253.83
2019-01-26T19:24:29.589Z,245.20
2019-01-26T19:27:00.870Z,261.77
2019-01-26T19:29:32.531Z,252.53
2019-01-26T19:32:05.428Z,249.00
2019-01-26T19:34:38.895Z,256.67
2019-01-26T19:37:15.738Z,249.73
2019-01-26T19:39:48.265Z,219.53
2019-01-26T19:42:27.925Z,202.13
2019-01-26T19:45:01.125Z,220.00
2019-01-26T19:47:34.044Z,194.57
2019-01-26T19:50:06.968Z,197.73
2019-01-26T19:52:40.105Z,211.53
2019-01-26T19:55:23.151Z,231.67
2019-01-26T19:58:00.414Z,233.73
2019-01-26T20:00:34.314Z,238.23
2019-01-26T20:03:06.138Z,238.93
2019-01-26T20:05:37.254Z,227.93
2019-01-26T20:08:10.204Z,239.47
2019-01-26T20:10:48.673Z,239.43
2019-01-26T20:13:20.860Z,308.10
2019-01-26T20:15:53.858Z,288.17
2019-01-26T20:18:34.265Z,238.00
2019-01-26T20:21:08.951Z,233.83
2019-01-26T20:23:49.735Z,226.00
2019-01-26T20:26:22.408Z,229.63
2019-01-26T20:28:56.898Z,236.70
2019-01-26T20:31:27.712Z,224.53
2019-01-26T20:33:59.639Z,214.83
2019-01-26T20:36:40.705Z,249.60
2019-01-26T20:39:11.633Z,302.10
2019-01-26T20:41:43.804Z,208.53
2019-01-26T20:44:17.789Z,198.37
2019-01-26T20:46:55.606Z,198.17
2019-01-26T20:49:27.580Z,190.00
2019-01-26T20:51:59.739Z,190.37
2019-01-26T20:54:30.628Z,172.83
2019-01-26T20:57:06.375Z,171.73
2019-01-26T20:59:41.155Z,170.77
2019-01-26T21:02:15.640Z,166.80
2019-01-26T21:04:51.348Z,189.30
2019-01-26T21:07:23.594Z,187.83
2019-01-26T21:09:54.900Z,306.73
2019-01-26T21:12:32.609Z,276.50
2019-01-26T21:15:08.756Z,172.13
2019-01-26T21:17:44.484Z,192.77
2019-01-26T21:20:21.754Z,186.10
2019-01-26T21:22:58.381Z,184.57
2019-01-26T21:25:32.980Z,168.77
2019-01-26T21:28:03.933Z,181.43
2019-01-26T21:30:34.574Z,224.03
2019-01-26T21:33:08.502Z,176.20
2019-01-26T21:35:41.569Z,172.33
2019-01-26T21:38:12.594Z,176.20
2019-01-26T21:40:48.743Z,177.60
2019-01-26T21:43:26.047Z,170.40
2019-01-26T21:45:57.995Z,153.87
2019-01-26T21:48:31.825Z,153.07
2019-01-26T21:51:05.020Z,150.73
2019-01-26T21:53:39.061Z,159.30
2019-01-26T21:56:09.905Z,300.10
2019-01-26T21:58:45.749Z,220.47
2019-01-26T22:01:20.089Z,287.33
2019-01-26T22:03:50.805Z,151.97
2019-01-26T22:06:21.510Z,368.13
2019-01-26T22:08:55.504Z,354.17
2019-01-26T22:11:26.033Z,134.73
2019-01-26T22:13:56.699Z,138.90
2019-01-26T22:16:28.754Z,369.63
2019-01-26T22:18:59.579Z,326.53
2019-01-26T22:21:30.404Z,691.67
2019-01-26T22:24:00.954Z,159.73
2019-01-26T22:26:31.841Z,232.10
2019-01-26T22:29:02.757Z,287.73
2019-01-26T22:31:33.618Z,156.67
2019-01-26T22:34:07.148Z,181.53
2019-01-26T22:36:40.771Z,170.67
2019-01-26T22:39:11.646Z,154.33
2019-01-26T22:41:42.326Z,245.17
2019-01-26T22:44:12.939Z,256.47
2019-01-26T22:46:43.810Z,176.17
2019-01-26T22:49:14.549Z,189.33
2019-01-26T22:51:44.974Z,265.40
2019-01-26T22:54:15.821Z,224.87
2019-01-26T22:56:46.449Z,284.03
2019-01-26T22:59:17.132Z,275.43
2019-01-26T23:01:48.611Z,204.43
2019-01-26T23:04:50.415Z,256.53
2019-01-26T23:07:44.692Z,389.93
2019-01-26T23:10:57.356Z,187.90
2019-01-26T23:13:52.529Z,299.10
2019-01-26T23:17:14.392Z,207.73
2019-01-26T23:20:12.381Z,218.43
2019-01-26T23:23:27.821Z,225.70
2019-01-26T23:26:47.392Z,174.93
2019-01-26T23:29:50.195Z,229.13
2019-01-26T23:32:20.969Z,185.53
2019-01-26T23:34:51.746Z,201.83
2019-01-26T23:37:22.549Z,200.33
2019-01-26T23:39:53.265Z,279.73
2019-01-26T23:42:24.224Z,180.43
2019-01-26T23:44:55.185Z,268.90
2019-01-26T23:47:25.910Z,221.47
2019-01-26T23:49:56.731Z,189.73
2019-01-26T23:52:27.622Z,174.30
2019-01-26T23:54:58.279Z,193.63
2019-01-26T23:57:29.684Z,202.20
